Terminal Aerodrome Forecast
Issued by NWS

Home | Current Version | Previous Version | Text Only | Print | Product List | Glossary On
Versions: 1 2 3 4 5 6 7 8 9 10 11 12 13 14
000
FTPA31 PHFO 292034 AAA
TAFHTO
TAF AMD
PHTO 292034Z 2921/3018 VRB05KT P6SM SCT090
     FM292200 13014G22KT P6SM FEW040 BKN100
     FM300900 19011KT P6SM VCSH SCT025 BKN040=

USA.gov is the U.S. government's official web portal to all federal, state and local government web resources and services.